createdAt,value
2023-02-08T00:00:23.147Z,100.00
2023-02-08T00:02:51.222Z,100.00
2023-02-08T00:05:19.542Z,100.00
2023-02-08T00:07:48.528Z,100.00
2023-02-08T00:10:16.180Z,100.00
2023-02-08T00:12:43.842Z,100.00
2023-02-08T00:15:11.507Z,100.00
2023-02-08T00:17:39.406Z,100.00
2023-02-08T00:20:07.650Z,100.00
2023-02-08T00:22:35.275Z,100.00
2023-02-08T00:25:04.367Z,100.00
2023-02-08T00:27:32.060Z,100.00
2023-02-08T00:29:59.740Z,100.00
2023-02-08T00:32:27.414Z,100.00
2023-02-08T00:34:55.102Z,100.00
2023-02-08T00:37:22.943Z,100.00
2023-02-08T00:39:51.033Z,100.00
2023-02-08T00:42:20.071Z,100.00
2023-02-08T00:44:47.736Z,100.00
2023-02-08T00:47:15.433Z,100.00
2023-02-08T00:49:43.100Z,100.00
2023-02-08T00:52:10.767Z,100.00
2023-02-08T00:54:38.557Z,100.00
2023-02-08T00:57:06.239Z,100.00
2023-02-08T00:59:35.368Z,100.00
2023-02-08T01:02:03.112Z,100.00
2023-02-08T01:04:30.809Z,100.00
2023-02-08T01:06:58.519Z,100.00
2023-02-08T01:09:26.241Z,100.00
2023-02-08T01:11:53.965Z,100.00
2023-02-08T01:14:21.625Z,100.00
2023-02-08T01:16:50.753Z,100.00
2023-02-08T01:19:18.431Z,100.00
2023-02-08T01:21:46.171Z,100.00
2023-02-08T01:24:13.913Z,100.00
2023-02-08T01:26:41.730Z,100.00
2023-02-08T01:29:09.475Z,100.00
2023-02-08T01:31:38.711Z,100.00
2023-02-08T01:34:08.916Z,100.00
2023-02-08T01:36:37.304Z,100.00
2023-02-08T01:39:06.136Z,100.00
2023-02-08T01:41:35.738Z,100.00
2023-02-08T01:44:07.685Z,100.00
2023-02-08T01:46:37.229Z,100.00
2023-02-08T01:49:09.454Z,100.00
2023-02-08T01:51:39.496Z,100.00
2023-02-08T01:54:08.703Z,100.00
2023-02-08T01:56:38.903Z,100.00
2023-02-08T01:59:10.297Z,100.00
2023-02-08T02:01:39.973Z,100.00
2023-02-08T02:04:10.126Z,100.00
2023-02-08T02:06:42.187Z,100.00
2023-02-08T02:09:26.086Z,100.00
2023-02-08T02:11:55.853Z,100.00
2023-02-08T02:14:24.518Z,100.00
2023-02-08T02:16:52.245Z,100.00
2023-02-08T02:19:27.657Z,100.00
2023-02-08T02:22:05.251Z,100.00
2023-02-08T02:25:08.582Z,100.00
2023-02-08T02:27:45.311Z,100.00
2023-02-08T02:31:01.322Z,100.00
2023-02-08T02:33:46.896Z,100.00
2023-02-08T02:36:19.451Z,100.00
2023-02-08T02:38:58.076Z,100.00
2023-02-08T02:41:50.481Z,100.00
2023-02-08T02:44:23.380Z,100.00
2023-02-08T02:46:56.837Z,100.00
2023-02-08T02:49:28.237Z,100.00
2023-02-08T02:51:59.926Z,100.00
2023-02-08T02:54:32.068Z,100.00
2023-02-08T02:57:02.840Z,100.00
2023-02-08T02:59:33.981Z,100.00
2023-02-08T03:02:03.626Z,100.00
2023-02-08T03:04:54.157Z,100.00
2023-02-08T03:07:47.163Z,100.00
2023-02-08T03:10:30.079Z,100.00
2023-02-08T03:13:02.665Z,100.00
2023-02-08T03:15:36.964Z,100.00
2023-02-08T03:18:10.796Z,100.00
2023-02-08T03:20:42.934Z,100.00
2023-02-08T03:23:14.272Z,100.00
2023-02-08T03:25:48.727Z,100.00
2023-02-08T03:28:21.661Z,100.00
2023-02-08T03:30:55.379Z,100.00
2023-02-08T03:33:26.771Z,100.00
2023-02-08T03:36:00.593Z,100.00
2023-02-08T03:38:31.165Z,100.00
2023-02-08T03:41:01.213Z,100.00
2023-02-08T03:43:31.500Z,100.00
2023-02-08T03:46:06.403Z,100.00
2023-02-08T03:48:34.805Z,100.00
2023-02-08T03:51:04.899Z,100.00
2023-02-08T03:53:38.302Z,100.00
2023-02-08T03:56:09.969Z,100.00
2023-02-08T03:58:43.083Z,100.00
2023-02-08T04:01:15.299Z,100.00
2023-02-08T04:03:45.615Z,100.00
2023-02-08T04:06:14.701Z,100.00
2023-02-08T04:08:42.364Z,100.00
2023-02-08T04:11:10.048Z,100.00
2023-02-08T04:13:37.912Z,100.00
2023-02-08T04:16:06.059Z,100.00
2023-02-08T04:18:33.729Z,100.00
2023-02-08T04:21:01.382Z,100.00
2023-02-08T04:23:30.423Z,100.00
2023-02-08T04:25:58.117Z,100.00
2023-02-08T04:28:25.867Z,100.00
2023-02-08T04:30:56.774Z,100.00
2023-02-08T04:33:24.509Z,100.00
2023-02-08T04:35:52.235Z,100.00
2023-02-08T04:38:19.933Z,100.00
2023-02-08T04:40:48.935Z,100.00
2023-02-08T04:43:16.569Z,100.00
2023-02-08T04:45:44.291Z,100.00
2023-02-08T04:48:12.140Z,100.00
2023-02-08T04:50:40.381Z,100.00
2023-02-08T04:53:08.260Z,100.00
2023-02-08T04:55:36.358Z,100.00
2023-02-08T04:58:05.639Z,100.00
2023-02-08T05:00:33.347Z,100.00
2023-02-08T05:03:01.009Z,100.00
2023-02-08T05:05:28.778Z,100.00
2023-02-08T05:07:56.484Z,100.00
2023-02-08T05:10:24.299Z,100.00
2023-02-08T05:12:52.005Z,100.00
2023-02-08T05:15:21.151Z,100.00
2023-02-08T05:17:48.872Z,100.00
2023-02-08T05:20:16.637Z,100.00
2023-02-08T05:22:44.270Z,100.00
2023-02-08T05:25:12.179Z,100.00
2023-02-08T05:27:39.992Z,100.00
2023-02-08T05:30:08.763Z,100.00
2023-02-08T05:32:37.800Z,100.00
2023-02-08T05:35:05.896Z,100.00
2023-02-08T05:37:33.555Z,100.00
2023-02-08T05:40:01.253Z,100.00
2023-02-08T05:42:28.985Z,100.00
2023-02-08T05:44:56.787Z,100.00
2023-02-08T05:47:24.503Z,100.00
2023-02-08T05:49:53.552Z,100.00
2023-02-08T05:52:21.276Z,100.00
2023-02-08T05:54:48.925Z,100.00
2023-02-08T05:57:16.570Z,100.00
2023-02-08T05:59:44.194Z,100.00
2023-02-08T06:02:11.827Z,100.00
2023-02-08T06:04:39.637Z,100.00
2023-02-08T06:07:08.737Z,100.00
2023-02-08T06:09:36.402Z,100.00
2023-02-08T06:12:04.195Z,100.00
2023-02-08T06:14:31.826Z,100.00
2023-02-08T06:16:59.527Z,100.00
2023-02-08T06:19:27.229Z,100.00
2023-02-08T06:21:56.494Z,100.00
2023-02-08T06:24:25.829Z,100.00
2023-02-08T06:26:53.536Z,100.00
2023-02-08T06:29:21.259Z,100.00
2023-02-08T06:31:49.142Z,100.00
2023-02-08T06:34:16.844Z,100.00
2023-02-08T06:36:45.385Z,100.00
2023-02-08T06:39:13.184Z,100.00
2023-02-08T06:41:42.191Z,100.00
2023-02-08T06:44:09.957Z,100.00
2023-02-08T06:46:37.624Z,100.00
2023-02-08T06:49:05.308Z,100.00
2023-02-08T06:51:32.995Z,100.00
2023-02-08T06:54:00.626Z,100.00
2023-02-08T06:56:28.328Z,100.00
2023-02-08T06:58:57.538Z,100.00
2023-02-08T07:01:25.329Z,100.00
2023-02-08T07:03:53.069Z,100.00
2023-02-08T07:06:21.527Z,100.00
2023-02-08T07:08:49.234Z,100.00
2023-02-08T07:11:19.720Z,100.00
2023-02-08T07:13:48.367Z,100.00
2023-02-08T07:16:17.919Z,100.00
2023-02-08T07:18:45.851Z,100.00
2023-02-08T07:21:13.811Z,100.00
2023-02-08T07:23:41.791Z,100.00
2023-02-08T07:26:11.936Z,100.00
2023-02-08T07:28:40.316Z,100.00
2023-02-08T07:31:08.983Z,100.00
2023-02-08T07:33:39.846Z,100.00
2023-02-08T07:36:08.910Z,100.00
2023-02-08T07:38:36.769Z,100.00
2023-02-08T07:41:05.837Z,100.00
2023-02-08T07:43:34.746Z,100.00
2023-02-08T07:46:06.861Z,100.00
2023-02-08T07:48:34.671Z,100.00
2023-02-08T07:51:03.955Z,100.00
2023-02-08T07:53:32.254Z,100.00
2023-02-08T07:56:00.246Z,100.00
2023-02-08T07:58:28.252Z,100.00
2023-02-08T08:00:56.065Z,100.00
2023-02-08T08:03:24.635Z,100.00
2023-02-08T08:05:54.899Z,100.00
2023-02-08T08:08:24.102Z,100.00
2023-02-08T08:10:51.812Z,100.00
2023-02-08T08:13:19.454Z,100.00
2023-02-08T08:15:48.150Z,100.00
2023-02-08T08:18:15.954Z,100.00
2023-02-08T08:20:43.665Z,100.00
2023-02-08T08:23:11.447Z,100.00
2023-02-08T08:25:40.536Z,100.00
2023-02-08T08:28:08.291Z,100.00
2023-02-08T08:30:36.167Z,100.00
2023-02-08T08:33:03.912Z,100.00
2023-02-08T08:35:31.582Z,100.00
2023-02-08T08:37:59.228Z,100.00
2023-02-08T08:40:26.964Z,100.00
2023-02-08T08:42:56.006Z,100.00
2023-02-08T08:45:23.711Z,100.00
2023-02-08T08:48:51.730Z,100.00
2023-02-08T08:51:19.530Z,100.00
2023-02-08T08:53:47.249Z,100.00
2023-02-08T08:56:14.984Z,100.00
2023-02-08T08:58:43.406Z,100.00
2023-02-08T09:01:11.158Z,100.00
2023-02-08T09:03:38.890Z,100.00
2023-02-08T09:06:08.237Z,100.00
2023-02-08T09:08:35.971Z,100.00
2023-02-08T09:11:08.033Z,100.00
2023-02-08T09:13:37.238Z,100.00
2023-02-08T09:16:09.155Z,100.00
2023-02-08T09:20:46.241Z,100.00
2023-02-08T09:23:15.097Z,100.00
2023-02-08T09:25:42.762Z,100.00
2023-02-08T09:28:10.497Z,100.00
2023-02-08T09:30:38.224Z,100.00
2023-02-08T09:33:05.969Z,100.00
2023-02-08T09:35:33.668Z,100.00
2023-02-08T09:38:04.517Z,100.00
2023-02-08T09:40:38.084Z,100.00
2023-02-08T09:43:10.146Z,100.00
2023-02-08T09:45:54.313Z,100.00
2023-02-08T09:48:27.776Z,100.00
2023-02-08T09:50:57.617Z,100.00
2023-02-08T09:53:32.599Z,100.00
2023-02-08T09:56:02.061Z,100.00
2023-02-08T09:58:34.165Z,100.00
2023-02-08T10:01:04.523Z,100.00
2023-02-08T10:03:37.032Z,100.00
2023-02-08T10:06:06.096Z,100.00
2023-02-08T10:08:36.200Z,100.00
2023-02-08T10:11:10.386Z,100.00
2023-02-08T10:13:46.211Z,100.00
2023-02-08T10:16:21.287Z,95.39
2023-02-08T10:18:56.052Z,89.69
2023-02-08T10:21:33.982Z,85.58
2023-02-08T10:24:24.241Z,84.04
2023-02-08T10:26:57.774Z,82.71
2023-02-08T10:29:39.592Z,81.93
2023-02-08T10:32:18.563Z,80.12
2023-02-08T10:34:47.999Z,79.51
2023-02-08T10:37:18.121Z,76.47
2023-02-08T10:39:47.728Z,71.78
2023-02-08T10:42:17.289Z,70.40
2023-02-08T10:44:56.884Z,66.46
2023-02-08T10:47:34.782Z,67.94
2023-02-08T10:50:04.787Z,65.28
2023-02-08T10:52:32.459Z,63.20
2023-02-08T10:55:02.302Z,59.92
2023-02-08T10:57:33.000Z,59.99
2023-02-08T11:00:03.412Z,61.19
2023-02-08T11:02:33.880Z,60.81
2023-02-08T11:05:03.596Z,62.34
2023-02-08T11:07:34.041Z,61.28
2023-02-08T11:10:22.344Z,61.00
2023-02-08T11:13:01.115Z,61.44
2023-02-08T11:15:40.974Z,63.86
2023-02-08T11:18:19.561Z,61.98
2023-02-08T11:20:50.018Z,64.08
2023-02-08T11:23:22.456Z,62.91
2023-02-08T11:25:52.549Z,62.33
2023-02-08T11:28:25.314Z,61.35
2023-02-08T11:30:57.915Z,58.52
2023-02-08T11:33:27.314Z,53.78
2023-02-08T11:36:03.255Z,53.72
2023-02-08T11:38:32.324Z,53.57
2023-02-08T11:41:03.385Z,53.97
2023-02-08T11:43:32.546Z,53.70
2023-02-08T11:46:00.891Z,53.73
2023-02-08T11:48:37.566Z,52.44
2023-02-08T11:51:05.591Z,50.86
2023-02-08T11:53:37.745Z,49.91
2023-02-08T11:56:15.783Z,49.55
2023-02-08T11:58:43.592Z,47.73
2023-02-08T12:01:20.094Z,48.08
2023-02-08T12:03:50.197Z,48.01
2023-02-08T12:06:34.212Z,45.94
2023-02-08T12:09:06.316Z,46.46
2023-02-08T12:11:41.391Z,48.33
2023-02-08T12:14:36.746Z,44.94
2023-02-08T12:17:16.769Z,45.05
2023-02-08T12:20:22.593Z,42.58
2023-02-08T12:22:55.753Z,41.79
2023-02-08T12:25:28.846Z,40.37
2023-02-08T12:28:02.790Z,40.90
2023-02-08T12:30:34.455Z,39.63
2023-02-08T12:33:17.254Z,41.60
2023-02-08T12:36:06.981Z,42.76
2023-02-08T12:39:19.638Z,41.30
2023-02-08T12:41:56.231Z,40.66
2023-02-08T12:44:33.519Z,41.32
2023-02-08T12:47:07.295Z,40.08
2023-02-08T12:49:49.954Z,40.90
2023-02-08T12:52:26.965Z,40.97
2023-02-08T12:54:58.715Z,40.95
2023-02-08T12:57:29.617Z,40.27
2023-02-08T13:00:02.807Z,40.56
2023-02-08T13:02:33.693Z,40.12
2023-02-08T13:05:04.939Z,39.10
2023-02-08T13:07:35.020Z,39.28
2023-02-08T13:10:06.476Z,38.78
2023-02-08T13:12:35.429Z,38.17
2023-02-08T13:15:11.874Z,38.15
2023-02-08T13:17:47.114Z,39.44
2023-02-08T13:20:26.987Z,38.30
2023-02-08T13:22:57.771Z,39.03
2023-02-08T13:25:30.449Z,38.16
2023-02-08T13:28:01.917Z,40.69
2023-02-08T13:30:32.834Z,42.67
2023-02-08T13:33:06.732Z,42.96
2023-02-08T13:35:34.909Z,42.99
2023-02-08T13:38:04.881Z,41.19
2023-02-08T13:40:34.199Z,43.22
2023-02-08T13:43:03.698Z,43.66
2023-02-08T13:45:36.702Z,43.03
2023-02-08T13:48:06.511Z,42.02
2023-02-08T13:50:44.088Z,42.73
2023-02-08T13:53:12.708Z,42.13
2023-02-08T13:56:08.308Z,42.90
2023-02-08T13:59:04.752Z,40.56
2023-02-08T14:01:36.071Z,39.07
2023-02-08T14:04:39.394Z,34.94
2023-02-08T14:07:15.261Z,34.11
2023-02-08T14:09:50.234Z,33.92
2023-02-08T14:12:24.824Z,34.54
2023-02-08T14:15:29.740Z,33.74
2023-02-08T14:17:59.757Z,34.50
2023-02-08T14:20:30.754Z,33.34
2023-02-08T14:22:59.875Z,34.28
2023-02-08T14:25:29.260Z,34.80
2023-02-08T14:27:59.086Z,34.50
2023-02-08T14:30:30.349Z,35.06
2023-02-08T14:33:16.370Z,34.85
2023-02-08T14:35:52.280Z,34.95
2023-02-08T14:38:38.234Z,34.86
2023-02-08T14:41:05.923Z,35.62
2023-02-08T14:43:35.677Z,35.75
2023-02-08T14:46:43.324Z,35.14
2023-02-08T14:49:14.233Z,34.57
2023-02-08T14:51:44.148Z,34.73
2023-02-08T14:54:22.126Z,34.58
2023-02-08T14:56:56.442Z,33.98
2023-02-08T14:59:26.780Z,33.91
2023-02-08T15:01:57.872Z,34.40
2023-02-08T15:04:27.492Z,34.07
2023-02-08T15:07:14.658Z,34.31
2023-02-08T15:09:43.509Z,34.02
2023-02-08T15:12:25.710Z,34.23
2023-02-08T15:14:55.182Z,33.64
2023-02-08T15:17:31.269Z,33.79
2023-02-08T15:20:00.934Z,33.84
2023-02-08T15:22:34.984Z,33.84
2023-02-08T15:25:05.708Z,33.62
2023-02-08T15:27:34.975Z,34.08
2023-02-08T15:30:02.720Z,34.26
2023-02-08T15:32:31.056Z,34.68
2023-02-08T15:35:01.687Z,34.74
2023-02-08T15:37:32.606Z,35.75
2023-02-08T15:40:01.272Z,35.11
2023-02-08T15:42:32.793Z,35.77
2023-02-08T15:45:02.526Z,36.48
2023-02-08T15:47:32.911Z,36.08
2023-02-08T15:50:02.638Z,36.51
2023-02-08T15:52:32.568Z,36.93
2023-02-08T15:55:00.378Z,37.82
2023-02-08T15:57:35.619Z,37.59
2023-02-08T16:00:05.435Z,38.86
2023-02-08T16:02:35.225Z,39.15
2023-02-08T16:05:13.025Z,40.19
2023-02-08T16:07:47.828Z,40.04
2023-02-08T16:10:25.101Z,39.48
2023-02-08T16:12:55.081Z,40.40
2023-02-08T16:15:40.346Z,40.79
2023-02-08T16:18:32.422Z,41.65
2023-02-08T16:21:03.022Z,42.88
2023-02-08T16:23:32.535Z,44.07
2023-02-08T16:26:12.019Z,44.41
2023-02-08T16:28:40.648Z,44.87
2023-02-08T16:31:08.887Z,45.19
2023-02-08T16:33:39.584Z,45.74
2023-02-08T16:36:08.688Z,47.11
2023-02-08T16:38:36.366Z,47.05
2023-02-08T16:41:13.049Z,48.07
2023-02-08T16:43:43.820Z,48.22
2023-02-08T16:46:21.174Z,49.61
2023-02-08T16:48:54.368Z,50.77
2023-02-08T16:51:25.824Z,52.01
2023-02-08T16:53:56.653Z,51.75
2023-02-08T16:56:25.105Z,52.01
2023-02-08T16:58:52.826Z,52.06
2023-02-08T17:01:21.230Z,53.90
2023-02-08T17:03:50.098Z,54.21
2023-02-08T17:06:25.556Z,54.32
2023-02-08T17:08:53.210Z,53.09
2023-02-08T17:11:20.945Z,53.67
2023-02-08T17:13:48.624Z,53.47
2023-02-08T17:16:19.429Z,53.85
2023-02-08T17:18:47.756Z,54.29
2023-02-08T17:21:15.743Z,54.44
2023-02-08T17:23:45.247Z,54.24
2023-02-08T17:26:16.331Z,51.48
2023-02-08T17:28:44.596Z,51.22
2023-02-08T17:31:13.177Z,51.22
2023-02-08T17:33:41.446Z,51.26
2023-02-08T17:36:10.030Z,52.76
2023-02-08T17:38:39.215Z,54.03
2023-02-08T17:41:08.803Z,54.89
2023-02-08T17:43:37.227Z,55.84
2023-02-08T17:46:10.206Z,56.63
2023-02-08T17:48:37.944Z,58.28
2023-02-08T17:51:09.640Z,58.95
2023-02-08T17:53:42.312Z,60.21
2023-02-08T17:56:13.887Z,59.91
2023-02-08T17:58:41.703Z,61.55
2023-02-08T18:01:17.235Z,63.07
2023-02-08T18:03:45.583Z,64.24
2023-02-08T18:06:13.962Z,66.22
2023-02-08T18:08:42.089Z,65.74
2023-02-08T18:11:15.881Z,65.57
2023-02-08T18:13:44.855Z,65.15
2023-02-08T18:16:15.216Z,66.79
2023-02-08T18:18:44.766Z,67.16
2023-02-08T18:21:15.729Z,66.99
2023-02-08T18:23:44.095Z,68.19
2023-02-08T18:26:15.518Z,70.06
2023-02-08T18:28:43.426Z,70.91
2023-02-08T18:31:14.461Z,71.47
2023-02-08T18:33:43.418Z,72.78
2023-02-08T18:36:12.443Z,74.16
2023-02-08T18:38:40.634Z,74.35
2023-02-08T18:41:09.541Z,74.11
2023-02-08T18:43:40.183Z,75.56
2023-02-08T18:46:10.151Z,77.21
2023-02-08T18:48:37.930Z,77.50
2023-02-08T18:51:06.970Z,77.73
2023-02-08T18:53:36.781Z,79.36
2023-02-08T18:56:06.533Z,79.73
2023-02-08T18:58:34.587Z,78.93
2023-02-08T19:01:08.184Z,77.04
2023-02-08T19:03:36.781Z,73.96
2023-02-08T19:06:08.824Z,74.21
2023-02-08T19:08:37.607Z,71.56
2023-02-08T19:11:05.951Z,70.12
2023-02-08T19:13:35.473Z,68.11
2023-02-08T19:16:03.214Z,67.06
2023-02-08T19:18:32.203Z,66.42
2023-02-08T19:21:04.851Z,66.44
2023-02-08T19:23:32.591Z,66.78
2023-02-08T19:26:02.521Z,65.73
2023-02-08T19:28:32.587Z,65.32
2023-02-08T19:31:04.847Z,64.10
2023-02-08T19:33:33.904Z,64.48
2023-02-08T19:36:08.172Z,63.29
2023-02-08T19:38:36.241Z,63.54
2023-02-08T19:41:04.057Z,64.31
2023-02-08T19:43:31.975Z,64.45
2023-02-08T19:46:01.775Z,65.44
2023-02-08T19:48:29.501Z,65.68
2023-02-08T19:51:00.225Z,66.25
2023-02-08T19:53:28.586Z,66.59
2023-02-08T19:55:57.284Z,68.01
2023-02-08T19:58:25.096Z,69.77
2023-02-08T20:00:53.332Z,69.94
2023-02-08T20:03:22.390Z,69.83
2023-02-08T20:05:50.931Z,69.85
2023-02-08T20:08:20.553Z,69.65
2023-02-08T20:10:50.436Z,69.48
2023-02-08T20:13:18.129Z,71.20
2023-02-08T20:15:46.403Z,70.95
2023-02-08T20:18:15.327Z,72.35
2023-02-08T20:20:45.272Z,73.08
2023-02-08T20:23:22.361Z,73.78
2023-02-08T20:25:51.783Z,74.94
2023-02-08T20:28:19.526Z,76.76
2023-02-08T20:30:47.279Z,75.85
2023-02-08T20:33:15.850Z,76.80
2023-02-08T20:35:43.807Z,77.27
2023-02-08T20:38:11.631Z,78.32
2023-02-08T20:40:39.341Z,78.13
2023-02-08T20:43:08.333Z,76.17
2023-02-08T20:45:36.013Z,74.45
2023-02-08T20:48:03.716Z,72.96
2023-02-08T20:50:33.158Z,72.06
2023-02-08T20:53:00.894Z,72.29
2023-02-08T20:55:28.557Z,72.86
2023-02-08T20:57:56.302Z,73.80
2023-02-08T21:00:33.478Z,73.53
2023-02-08T21:03:07.907Z,74.60
2023-02-08T21:05:35.579Z,76.72
2023-02-08T21:08:03.281Z,77.61
2023-02-08T21:10:30.947Z,76.49
2023-02-08T21:12:59.039Z,76.10
2023-02-08T21:15:28.089Z,75.33
2023-02-08T21:17:55.978Z,75.78
2023-02-08T21:20:23.711Z,75.13
2023-02-08T21:22:51.563Z,75.30
2023-02-08T21:25:19.278Z,74.90
2023-02-08T21:27:47.101Z,75.79
2023-02-08T21:30:15.092Z,75.98
2023-02-08T21:32:44.063Z,76.33
2023-02-08T21:35:11.845Z,76.36
2023-02-08T21:37:39.576Z,77.06
2023-02-08T21:40:07.702Z,76.55
2023-02-08T21:42:35.462Z,76.96
2023-02-08T21:45:03.177Z,76.86
2023-02-08T21:47:30.860Z,76.83
2023-02-08T21:50:17.565Z,77.80
2023-02-08T21:53:02.839Z,77.56
2023-02-08T21:55:30.561Z,76.91
2023-02-08T21:57:58.196Z,75.90
2023-02-08T22:00:26.139Z,76.19
2023-02-08T22:02:53.859Z,75.78
2023-02-08T22:05:22.961Z,75.34
2023-02-08T22:07:52.465Z,74.71
2023-02-08T22:10:21.944Z,74.44
2023-02-08T22:12:52.408Z,74.88
2023-02-08T22:15:22.153Z,74.27
2023-02-08T22:17:53.582Z,73.99
2023-02-08T22:20:21.385Z,72.57
2023-02-08T22:22:53.079Z,72.57
2023-02-08T22:25:22.492Z,73.00
2023-02-08T22:27:50.267Z,72.84
2023-02-08T22:30:19.584Z,71.25
2023-02-08T22:32:49.011Z,70.04
2023-02-08T22:35:18.233Z,70.93
2023-02-08T22:37:45.989Z,70.81
2023-02-08T22:40:15.692Z,69.91
2023-02-08T22:42:43.580Z,70.80
2023-02-08T22:45:11.687Z,70.91
2023-02-08T22:47:39.708Z,69.27
2023-02-08T22:50:08.012Z,67.90
2023-02-08T22:52:35.902Z,67.82
2023-02-08T22:55:04.224Z,68.53
2023-02-08T22:57:33.460Z,67.56
2023-02-08T23:00:01.164Z,66.72
2023-02-08T23:02:29.068Z,66.37
2023-02-08T23:04:56.866Z,65.78
2023-02-08T23:07:24.544Z,66.11
2023-02-08T23:09:52.223Z,65.82
2023-02-08T23:12:19.941Z,65.17
2023-02-08T23:14:49.714Z,65.36
2023-02-08T23:17:17.655Z,65.04
2023-02-08T23:19:45.314Z,64.21
2023-02-08T23:22:13.160Z,64.31
2023-02-08T23:24:40.855Z,64.69
2023-02-08T23:27:08.572Z,65.60
2023-02-08T23:29:36.462Z,64.24
2023-02-08T23:32:05.520Z,65.05
2023-02-08T23:34:35.196Z,65.30
2023-02-08T23:37:03.006Z,63.92
2023-02-08T23:39:33.821Z,63.08
2023-02-08T23:42:01.764Z,65.00
2023-02-08T23:44:29.452Z,62.69
2023-02-08T23:46:57.136Z,64.22
2023-02-08T23:49:26.212Z,64.43
2023-02-08T23:51:54.275Z,62.97
2023-02-08T23:54:21.970Z,63.06
2023-02-08T23:56:51.945Z,62.23
2023-02-08T23:59:19.702Z,62.17
